Time;durP1;ratioP1;P1;durP2;ratioP2;P2;SDS_P1;SDS_P2;PMS_P1;PMS_P2;Temp;Humidity;BMP_temperature;BMP_pressure;BME280_temperature;BME280_humidity;BME280_pressure;Samples;Min_cycle;Max_cycle;Signal;HPM_P1;HPM_P2
2023/10/31 00:01:16;;;;;;;3.00;2.80;;;12.50;99.90;;;;;;5036130;28;20166;-72
2023/10/31 00:03:42;;;;;;;3.30;3.00;;;12.50;99.90;;;;;;5037195;28;20168;-72
2023/10/31 00:06:08;;;;;;;4.53;2.97;;;12.50;99.90;;;;;;5036006;28;20172;-73
2023/10/31 00:08:33;;;;;;;4.57;4.10;;;12.50;99.90;;;;;;5037150;28;20492;-73
2023/10/31 00:10:59;;;;;;;4.93;3.77;;;12.50;99.90;;;;;;5037299;28;20172;-72
2023/10/31 00:13:24;;;;;;;4.67;4.17;;;12.50;99.90;;;;;;5036741;28;20251;-73
2023/10/31 00:15:50;;;;;;;4.40;3.93;;;12.40;99.90;;;;;;5037188;28;20631;-73
2023/10/31 00:18:16;;;;;;;5.07;4.57;;;12.40;99.90;;;;;;5039129;28;20215;-72
2023/10/31 00:20:41;;;;;;;5.27;4.77;;;12.40;99.90;;;;;;5037153;28;20234;-72
2023/10/31 00:23:07;;;;;;;5.30;4.53;;;12.40;99.90;;;;;;5036486;28;20171;-73
2023/10/31 00:25:32;;;;;;;4.33;3.93;;;12.40;99.90;;;;;;5036391;28;20179;-72
2023/10/31 00:27:58;;;;;;;4.77;4.27;;;12.40;99.90;;;;;;5034936;28;20192;-73
2023/10/31 00:30:23;;;;;;;4.20;2.80;;;12.40;99.90;;;;;;5035141;28;20270;-72
2023/10/31 00:32:49;;;;;;;3.97;2.90;;;12.40;99.90;;;;;;5034662;28;20546;-73
2023/10/31 00:35:14;;;;;;;2.83;2.57;;;12.50;99.90;;;;;;5038232;28;20180;-74
2023/10/31 00:37:40;;;;;;;3.40;3.10;;;12.40;99.90;;;;;;5035055;28;20203;-74
2023/10/31 00:40:12;;;;;;;3.27;2.97;;;12.40;99.90;;;;;;5033898;28;20172;-72
2023/10/31 00:42:40;;;;;;;3.40;3.10;;;12.40;99.90;;;;;;5033090;28;20266;-73
2023/10/31 00:45:07;;;;;;;3.10;2.23;;;12.40;99.90;;;;;;5034078;28;20407;-72
2023/10/31 00:47:32;;;;;;;4.27;3.00;;;12.40;99.90;;;;;;5033832;28;20430;-73
2023/10/31 00:49:58;;;;;;;3.90;2.90;;;12.40;99.90;;;;;;5033811;28;20448;-73
2023/10/31 00:52:23;;;;;;;3.20;2.90;;;12.30;99.90;;;;;;5033961;28;20554;-73
2023/10/31 00:54:49;;;;;;;4.73;2.63;;;12.30;99.90;;;;;;5033891;28;20732;-73
2023/10/31 00:57:15;;;;;;;2.87;2.67;;;12.20;99.90;;;;;;5033382;28;20219;-73
2023/10/31 00:59:40;;;;;;;3.00;2.60;;;12.30;99.90;;;;;;5032714;28;20733;-72
2023/10/31 01:02:06;;;;;;;3.13;2.40;;;12.20;99.90;;;;;;5033616;28;20167;-73
2023/10/31 01:04:31;;;;;;;3.20;2.90;;;12.20;99.90;;;;;;5034085;28;20657;-73
2023/10/31 01:06:57;;;;;;;2.63;2.43;;;12.10;99.90;;;;;;5033838;28;20313;-73
2023/10/31 01:09:22;;;;;;;2.03;1.83;;;12.10;99.90;;;;;;5033282;28;20597;-73
2023/10/31 01:11:48;;;;;;;3.87;2.47;;;12.00;99.90;;;;;;5033153;28;20197;-73
2023/10/31 01:14:14;;;;;;;2.53;2.30;;;11.90;99.90;;;;;;5033295;28;20182;-73
2023/10/31 01:16:40;;;;;;;3.73;2.00;;;11.80;99.90;;;;;;5032933;28;20198;-73
2023/10/31 01:19:06;;;;;;;2.37;1.80;;;11.70;99.90;;;;;;5032967;28;20426;-73
2023/10/31 01:21:31;;;;;;;2.57;1.83;;;11.70;99.90;;;;;;5032906;28;20425;-73
2023/10/31 01:23:58;;;;;;;3.17;1.90;;;11.70;99.90;;;;;;5033266;28;20211;-73
2023/10/31 01:26:24;;;;;;;2.93;1.90;;;11.60;99.90;;;;;;5032122;28;20233;-73
2023/10/31 01:28:49;;;;;;;3.77;1.63;;;11.50;99.90;;;;;;5032275;28;20922;-73
2023/10/31 01:31:15;;;;;;;3.77;1.70;;;11.50;99.90;;;;;;5033157;28;20214;-72
2023/10/31 01:33:40;;;;;;;3.00;1.73;;;11.40;99.90;;;;;;5031945;28;20714;-71
2023/10/31 01:36:06;;;;;;;2.23;2.03;;;11.50;99.90;;;;;;5031802;28;20176;-73
2023/10/31 01:38:32;;;;;;;2.30;2.10;;;11.50;99.90;;;;;;5032988;28;20282;-74
2023/10/31 01:40:57;;;;;;;3.10;2.17;;;11.60;99.90;;;;;;5033225;28;20401;-73
2023/10/31 01:43:36;;;;;;;2.03;1.60;;;11.50;99.90;;;;;;5033055;28;20210;-73
2023/10/31 01:46:03;;;;;;;2.20;1.87;;;11.50;99.90;;;;;;5032885;28;20430;-73
2023/10/31 01:48:33;;;;;;;1.60;1.30;;;11.50;99.90;;;;;;5033143;28;20429;-73
2023/10/31 01:51:01;;;;;;;1.77;1.47;;;11.40;99.90;;;;;;5031616;28;20906;-72
2023/10/31 01:53:28;;;;;;;2.87;1.77;;;11.30;99.90;;;;;;5032627;28;20402;-73
2023/10/31 01:55:55;;;;;;;3.17;2.30;;;11.30;99.90;;;;;;5033412;28;20501;-73
2023/10/31 01:58:25;;;;;;;2.50;2.30;;;11.10;99.90;;;;;;5032000;28;20493;-72
2023/10/31 02:00:51;;;;;;;6.17;2.47;;;11.10;99.90;;;;;;5032783;28;20477;-73
2023/10/31 02:03:17;;;;;;;1.87;1.57;;;11.10;99.90;;;;;;5031990;28;20497;-73
2023/10/31 02:05:42;;;;;;;3.47;1.70;;;11.20;99.90;;;;;;5032403;28;20172;-73
2023/10/31 02:08:08;;;;;;;3.87;1.47;;;11.20;99.90;;;;;;5033022;28;20426;-73
2023/10/31 02:10:34;;;;;;;2.70;1.60;;;11.10;99.90;;;;;;5031411;28;20175;-73
2023/10/31 02:13:11;;;;;;;6.07;1.83;;;11.10;99.90;;;;;;5030986;28;20179;-73
2023/10/31 02:15:37;;;;;;;2.50;1.53;;;11.00;99.90;;;;;;5032256;28;20410;-74
2023/10/31 02:18:02;;;;;;;2.70;1.83;;;11.00;99.90;;;;;;5032098;28;20835;-73
2023/10/31 02:20:28;;;;;;;7.10;2.23;;;10.90;99.90;;;;;;5032309;28;20225;-73
2023/10/31 02:22:53;;;;;;;2.60;1.73;;;10.90;99.90;;;;;;5030620;28;20171;-72
2023/10/31 02:25:19;;;;;;;4.03;1.80;;;10.90;99.90;;;;;;5032358;28;20174;-73
2023/10/31 02:27:45;;;;;;;2.30;2.10;;;10.90;99.90;;;;;;5032855;28;20682;-72
2023/10/31 02:30:11;;;;;;;4.87;2.07;;;10.80;99.90;;;;;;5032463;28;20180;-73
2023/10/31 02:32:36;;;;;;;1.63;1.53;;;10.70;99.90;;;;;;5032177;28;20175;-73
2023/10/31 02:35:02;;;;;;;5.23;2.27;;;10.70;99.90;;;;;;5033076;28;20437;-72
2023/10/31 02:37:27;;;;;;;5.50;2.47;;;10.60;99.90;;;;;;5033722;28;20585;-72
2023/10/31 02:39:53;;;;;;;3.90;2.10;;;10.60;99.90;;;;;;5031524;28;20179;-73
2023/10/31 02:42:19;;;;;;;5.13;2.17;;;10.60;99.90;;;;;;5030515;28;20297;-73
2023/10/31 02:44:44;;;;;;;3.17;2.23;;;10.60;99.90;;;;;;5032402;28;20160;-73
2023/10/31 02:47:10;;;;;;;2.97;2.13;;;10.50;99.90;;;;;;5032115;28;20245;-72
2023/10/31 02:49:35;;;;;;;2.43;1.40;;;10.50;99.90;;;;;;5031823;28;20179;-73
2023/10/31 02:52:01;;;;;;;3.30;2.00;;;10.50;99.90;;;;;;5031787;28;20175;-73
2023/10/31 02:54:26;;;;;;;3.03;1.83;;;10.50;99.90;;;;;;5032518;28;20199;-72
2023/10/31 02:56:52;;;;;;;2.83;2.10;;;10.50;99.90;;;;;;5031976;28;20203;-72
2023/10/31 02:59:17;;;;;;;3.90;1.57;;;10.50;99.90;;;;;;5032249;28;20610;-72
2023/10/31 03:01:43;;;;;;;6.23;2.50;;;10.50;99.90;;;;;;5032017;28;20167;-73
2023/10/31 03:04:08;;;;;;;5.20;2.00;;;10.50;99.90;;;;;;5032076;28;20171;-72
2023/10/31 03:06:34;;;;;;;2.30;1.40;;;10.40;99.90;;;;;;5032066;28;20171;-73
2023/10/31 03:08:59;;;;;;;3.57;2.10;;;10.40;99.90;;;;;;5031993;28;20207;-73
2023/10/31 03:11:26;;;;;;;1.70;1.40;;;10.40;99.90;;;;;;5031834;28;20180;-73
2023/10/31 03:13:53;;;;;;;4.03;2.50;;;10.40;99.90;;;;;;5031677;28;20172;-73
2023/10/31 03:16:19;;;;;;;1.83;1.33;;;10.40;99.90;;;;;;5031505;28;20444;-73
2023/10/31 03:18:46;;;;;;;5.00;1.67;;;10.50;99.90;;;;;;5032058;28;20933;-73
2023/10/31 03:21:12;;;;;;;3.70;2.60;;;10.50;99.90;;;;;;5031601;28;20426;-74
2023/10/31 03:23:37;;;;;;;2.57;1.73;;;10.60;99.90;;;;;;5032558;28;20441;-74
2023/10/31 03:26:03;;;;;;;2.07;1.10;;;10.60;99.90;;;;;;5035526;28;20175;-73
2023/10/31 03:28:29;;;;;;;1.83;1.30;;;10.70;99.90;;;;;;5035159;28;20192;-72
2023/10/31 03:30:54;;;;;;;1.63;1.43;;;10.70;99.90;;;;;;5033995;28;20187;-74
2023/10/31 03:33:20;;;;;;;5.47;4.83;;;10.70;99.90;;;;;;5034098;28;20179;-74
2023/10/31 03:35:46;;;;;;;12.57;8.30;;;10.70;99.90;;;;;;5035154;28;20246;-73
2023/10/31 03:38:12;;;;;;;5.00;1.40;;;10.80;99.90;;;;;;5035005;28;20205;-73
2023/10/31 03:40:37;;;;;;;1.50;1.40;;;10.90;99.90;;;;;;5034620;28;20759;-73
2023/10/31 03:43:03;;;;;;;1.73;1.40;;;10.90;99.90;;;;;;5034790;28;20650;-72
2023/10/31 03:45:29;;;;;;;1.60;1.10;;;11.00;99.90;;;;;;5034815;28;20163;-74
2023/10/31 03:47:54;;;;;;;1.50;1.40;;;11.00;99.90;;;;;;5034852;28;20599;-73
2023/10/31 03:50:20;;;;;;;4.37;1.67;;;11.10;99.90;;;;;;5033843;28;20398;-74
2023/10/31 03:52:45;;;;;;;2.57;1.60;;;11.10;99.90;;;;;;5034719;28;20176;-72
2023/10/31 03:55:11;;;;;;;3.93;2.10;;;11.10;99.90;;;;;;5035809;28;20250;-71
2023/10/31 03:57:36;;;;;;;2.70;2.10;;;11.20;99.90;;;;;;5033085;28;20377;-73
2023/10/31 04:00:04;;;;;;;6.43;1.53;;;11.30;99.90;;;;;;5034917;28;20635;-72
2023/10/31 04:02:30;;;;;;;1.53;1.27;;;11.30;99.90;;;;;;5034469;28;20167;-73
2023/10/31 04:04:55;;;;;;;2.00;1.33;;;11.30;99.90;;;;;;5034808;28;20544;-73
2023/10/31 04:07:21;;;;;;;4.07;3.63;;;11.30;99.90;;;;;;5034533;28;20191;-72
2023/10/31 04:09:47;;;;;;;3.03;1.63;;;11.40;99.90;;;;;;5035210;28;20658;-73
2023/10/31 04:12:12;;;;;;;1.80;1.23;;;11.30;99.90;;;;;;5034259;28;20163;-73
2023/10/31 04:14:38;;;;;;;1.77;1.30;;;11.40;99.90;;;;;;5033902;28;20621;-73
2023/10/31 04:17:04;;;;;;;1.50;1.33;;;11.40;99.90;;;;;;5035221;28;20341;-73
2023/10/31 04:19:29;;;;;;;1.63;1.47;;;11.40;99.90;;;;;;5034410;28;20437;-73
2023/10/31 04:21:55;;;;;;;1.77;1.30;;;11.30;99.90;;;;;;5034511;28;20171;-73
2023/10/31 04:24:21;;;;;;;1.27;1.17;;;11.40;99.90;;;;;;5034744;28;20171;-73
2023/10/31 04:26:46;;;;;;;1.60;1.37;;;11.40;99.90;;;;;;5033360;28;20635;-73
2023/10/31 04:29:12;;;;;;;2.50;1.37;;;11.50;99.90;;;;;;5034231;28;20172;-72
2023/10/31 04:31:37;;;;;;;2.63;1.40;;;11.60;99.90;;;;;;5032999;28;20208;-73
2023/10/31 04:34:03;;;;;;;1.40;1.30;;;11.50;99.90;;;;;;5032222;28;20222;-72
2023/10/31 04:36:28;;;;;;;2.07;1.37;;;11.50;99.90;;;;;;5033452;28;20175;-73
2023/10/31 04:38:54;;;;;;;1.40;1.23;;;11.50;99.90;;;;;;5033752;28;20274;-73
2023/10/31 04:41:20;;;;;;;1.57;1.30;;;11.50;99.90;;;;;;5032556;28;20329;-73
2023/10/31 04:43:45;;;;;;;2.10;1.67;;;11.60;99.90;;;;;;5032698;28;20175;-73
2023/10/31 04:46:11;;;;;;;2.40;1.77;;;11.50;99.90;;;;;;5034017;28;20167;-73
2023/10/31 04:48:37;;;;;;;1.80;1.53;;;11.60;99.90;;;;;;5034186;28;20187;-73
2023/10/31 04:51:02;;;;;;;2.17;1.87;;;11.60;99.90;;;;;;5034463;28;20176;-72
2023/10/31 04:53:28;;;;;;;1.60;1.50;;;11.70;99.90;;;;;;5032404;28;20642;-71
2023/10/31 04:55:54;;;;;;;1.80;1.40;;;11.70;99.90;;;;;;5033571;28;20241;-73
2023/10/31 04:58:19;;;;;;;1.90;1.73;;;11.70;99.90;;;;;;5032249;28;20709;-73
2023/10/31 05:00:45;;;;;;;1.87;1.70;;;11.80;99.90;;;;;;5033632;28;20174;-72
2023/10/31 05:03:11;;;;;;;1.50;1.33;;;11.80;99.90;;;;;;5033541;28;20194;-73
2023/10/31 05:05:36;;;;;;;2.67;1.70;;;11.80;99.90;;;;;;5033743;28;20434;-73
2023/10/31 05:08:02;;;;;;;1.97;1.77;;;11.80;99.90;;;;;;5032108;28;20196;-72
2023/10/31 05:10:28;;;;;;;2.13;1.40;;;11.70;99.90;;;;;;5033311;28;20167;-72
2023/10/31 05:12:53;;;;;;;2.20;2.00;;;11.70;99.90;;;;;;5033108;28;20179;-72
2023/10/31 05:15:19;;;;;;;1.60;1.50;;;11.70;99.90;;;;;;5033259;28;20218;-73
2023/10/31 05:17:44;;;;;;;2.57;2.47;;;11.70;99.90;;;;;;5033043;28;20462;-71
2023/10/31 05:20:10;;;;;;;1.90;1.80;;;11.70;99.90;;;;;;5033292;28;20172;-73
2023/10/31 05:22:36;;;;;;;6.53;4.47;;;11.70;99.90;;;;;;5032844;28;20167;-73
2023/10/31 05:25:02;;;;;;;5.60;3.07;;;11.80;99.90;;;;;;5032983;28;20183;-73
2023/10/31 05:27:28;;;;;;;1.73;1.63;;;11.80;99.90;;;;;;5032875;28;20438;-73
2023/10/31 05:29:54;;;;;;;2.07;1.80;;;11.80;99.90;;;;;;5031726;28;20920;-72
2023/10/31 05:32:19;;;;;;;1.90;1.70;;;11.80;99.90;;;;;;5032645;28;20413;-72
2023/10/31 05:34:45;;;;;;;1.60;1.50;;;11.80;99.90;;;;;;5032810;28;20195;-72
2023/10/31 05:37:10;;;;;;;1.70;1.60;;;11.90;99.90;;;;;;5032842;28;20235;-73
2023/10/31 05:39:36;;;;;;;1.77;1.20;;;11.90;99.90;;;;;;5031999;28;20243;-73
2023/10/31 05:42:03;;;;;;;2.07;1.73;;;11.80;99.90;;;;;;5032666;28;20533;-73
2023/10/31 05:44:28;;;;;;;2.80;1.60;;;11.90;99.90;;;;;;5032770;28;20406;-73
2023/10/31 05:46:54;;;;;;;2.20;1.97;;;11.80;99.90;;;;;;5032276;28;20493;-72
2023/10/31 05:49:20;;;;;;;1.70;1.60;;;11.80;99.90;;;;;;5032742;28;20171;-73
2023/10/31 05:51:53;;;;;;;2.07;1.87;;;11.90;99.90;;;;;;5032393;28;20695;-72
2023/10/31 05:54:18;;;;;;;2.23;1.90;;;11.90;99.90;;;;;;5032725;28;20171;-74
2023/10/31 05:56:44;;;;;;;3.00;1.70;;;11.90;99.90;;;;;;5032270;28;20457;-73
2023/10/31 05:59:11;;;;;;;1.83;1.73;;;12.00;99.90;;;;;;5032496;28;20246;-73
2023/10/31 06:01:36;;;;;;;3.37;1.87;;;11.90;99.90;;;;;;5032281;28;20398;-73
2023/10/31 06:04:02;;;;;;;2.53;2.13;;;12.00;99.90;;;;;;5032596;28;20406;-73
2023/10/31 06:06:29;;;;;;;29.63;18.63;;;12.00;99.90;;;;;;5031172;28;20178;-73
2023/10/31 06:08:55;;;;;;;2.93;2.67;;;11.90;99.90;;;;;;5032254;28;20429;-73
2023/10/31 06:11:20;;;;;;;2.80;2.10;;;12.00;99.90;;;;;;5032049;28;20410;-73
2023/10/31 06:13:47;;;;;;;2.50;1.97;;;11.90;99.90;;;;;;5032149;28;20171;-73
2023/10/31 06:16:13;;;;;;;2.63;2.03;;;12.00;99.90;;;;;;5032150;28;20191;-73
2023/10/31 06:18:40;;;;;;;3.10;2.90;;;12.00;99.90;;;;;;5031941;28;20481;-73
2023/10/31 06:21:05;;;;;;;2.77;2.57;;;11.90;99.90;;;;;;5032452;28;20771;-73
2023/10/31 06:23:31;;;;;;;3.30;2.23;;;11.80;99.90;;;;;;5031940;28;20406;-73
2023/10/31 06:25:56;;;;;;;2.87;2.67;;;11.90;99.90;;;;;;5032516;28;20163;-73
2023/10/31 06:28:23;;;;;;;3.00;2.80;;;11.90;99.90;;;;;;5032075;28;20187;-72
2023/10/31 06:30:48;;;;;;;2.90;2.63;;;11.90;99.90;;;;;;5032051;28;20174;-73
2023/10/31 06:33:14;;;;;;;3.73;3.23;;;11.90;99.90;;;;;;5031772;28;20406;-73
2023/10/31 06:35:39;;;;;;;3.10;2.77;;;11.90;99.90;;;;;;5031895;28;20535;-74
2023/10/31 06:38:05;;;;;;;3.07;2.77;;;11.90;99.90;;;;;;5032041;28;20199;-72
2023/10/31 06:40:30;;;;;;;2.70;2.50;;;11.90;99.90;;;;;;5031966;28;20163;-72
2023/10/31 06:42:56;;;;;;;5.13;3.17;;;11.80;99.90;;;;;;5031720;28;20159;-73
2023/10/31 06:45:21;;;;;;;5.90;2.53;;;11.80;99.90;;;;;;5030652;28;20198;-72
2023/10/31 06:47:47;;;;;;;2.20;1.90;;;11.80;99.90;;;;;;5030637;28;20195;-72
2023/10/31 06:50:12;;;;;;;3.17;2.10;;;11.80;99.90;;;;;;5032019;28;20614;-72
2023/10/31 06:52:38;;;;;;;3.30;3.00;;;11.80;99.90;;;;;;5031625;28;20175;-73
2023/10/31 06:55:04;;;;;;;2.83;2.50;;;11.80;99.90;;;;;;5031761;28;20198;-73
2023/10/31 06:57:30;;;;;;;4.60;2.87;;;11.90;99.90;;;;;;5032043;28;20195;-72
2023/10/31 06:59:55;;;;;;;5.63;3.30;;;11.90;99.90;;;;;;5036282;28;20922;-73
2023/10/31 07:02:21;;;;;;;3.60;3.30;;;11.90;99.90;;;;;;5036010;28;20672;-73
2023/10/31 07:04:46;;;;;;;7.43;4.40;;;11.90;99.90;;;;;;5036443;28;20175;-73
2023/10/31 07:07:12;;;;;;;3.50;2.70;;;11.90;99.90;;;;;;5035966;28;20562;-73
2023/10/31 07:09:37;;;;;;;3.33;3.00;;;11.90;99.90;;;;;;5035641;28;20178;-72
2023/10/31 07:12:03;;;;;;;3.33;3.03;;;11.80;99.90;;;;;;5035534;28;20229;-72
2023/10/31 07:14:29;;;;;;;3.37;3.07;;;12.00;99.90;;;;;;5035513;28;20171;-72
2023/10/31 07:16:56;;;;;;;3.33;3.03;;;12.00;99.90;;;;;;5035484;28;20198;-73
2023/10/31 07:19:22;;;;;;;4.70;2.90;;;12.10;99.90;;;;;;5035448;28;20191;-73
2023/10/31 07:21:47;;;;;;;3.17;2.77;;;12.10;99.90;;;;;;5035273;28;20445;-73
2023/10/31 07:24:13;;;;;;;3.90;3.50;;;12.20;99.90;;;;;;5035423;28;20623;-72
2023/10/31 07:26:38;;;;;;;3.40;3.00;;;12.30;99.90;;;;;;5034073;28;20217;-73
2023/10/31 07:29:04;;;;;;;5.03;2.70;;;12.30;99.90;;;;;;5035101;28;20199;-73
2023/10/31 07:31:29;;;;;;;6.70;3.00;;;12.40;99.90;;;;;;5035190;28;20160;-72
2023/10/31 07:33:56;;;;;;;3.93;3.00;;;12.40;99.90;;;;;;5035230;28;20163;-72
2023/10/31 07:36:21;;;;;;;4.47;2.67;;;12.50;99.90;;;;;;5035003;28;20573;-72
2023/10/31 07:38:47;;;;;;;5.40;3.13;;;12.50;99.90;;;;;;5034996;28;20441;-71
2023/10/31 07:41:13;;;;;;;3.77;3.20;;;12.60;99.90;;;;;;5035366;28;20164;-71
2023/10/31 07:43:38;;;;;;;3.50;3.20;;;12.70;99.90;;;;;;5035257;28;20417;-73
2023/10/31 07:46:04;;;;;;;3.43;2.77;;;12.80;99.90;;;;;;5035183;28;20634;-73
2023/10/31 07:48:30;;;;;;;3.90;3.00;;;12.90;99.90;;;;;;5034867;28;20662;-73
2023/10/31 07:50:55;;;;;;;4.23;2.00;;;13.40;99.90;;;;;;5035105;28;20168;-73
2023/10/31 07:53:21;;;;;;;2.47;2.23;;;13.70;99.90;;;;;;5033574;28;20176;-73
2023/10/31 07:55:46;;;;;;;3.00;2.53;;;13.80;99.90;;;;;;5035381;28;20257;-73
2023/10/31 07:58:12;;;;;;;3.57;2.23;;;13.80;99.90;;;;;;5034665;28;20296;-72
2023/10/31 08:00:39;;;;;;;2.60;1.90;;;13.90;99.90;;;;;;5034783;28;20164;-72
2023/10/31 08:03:04;;;;;;;2.63;2.43;;;14.00;99.90;;;;;;5034042;28;20433;-73
2023/10/31 08:05:30;;;;;;;5.23;2.30;;;13.90;99.90;;;;;;5035286;28;20411;-72
2023/10/31 08:07:55;;;;;;;4.10;2.10;;;14.00;99.90;;;;;;5034863;28;20191;-71
2023/10/31 08:10:21;;;;;;;2.03;1.90;;;14.40;99.90;;;;;;5035050;28;20542;-73
2023/10/31 08:12:46;;;;;;;3.10;2.40;;;14.90;99.90;;;;;;5033293;28;20171;-73
2023/10/31 08:15:13;;;;;;;1.77;1.67;;;15.00;99.90;;;;;;5035031;28;20186;-73
2023/10/31 08:17:39;;;;;;;3.23;1.83;;;15.10;99.90;;;;;;5034552;28;20280;-73
2023/10/31 08:20:05;;;;;;;4.20;2.60;;;15.00;99.90;;;;;;5034562;28;20414;-73
2023/10/31 08:22:30;;;;;;;4.07;1.90;;;15.00;99.90;;;;;;5034220;28;20166;-73
2023/10/31 08:24:56;;;;;;;2.53;2.13;;;15.00;99.90;;;;;;5033023;28;20414;-73
2023/10/31 08:27:21;;;;;;;2.93;2.27;;;14.80;99.90;;;;;;5032924;28;20196;-71
2023/10/31 08:29:47;;;;;;;3.00;2.33;;;14.60;99.90;;;;;;5034397;28;20685;-74
2023/10/31 08:32:13;;;;;;;3.03;2.60;;;14.40;99.90;;;;;;5034309;28;20706;-72
2023/10/31 08:34:38;;;;;;;1.90;1.80;;;14.30;99.90;;;;;;5034080;28;20515;-73
2023/10/31 08:37:04;;;;;;;3.27;2.70;;;14.10;99.90;;;;;;5033966;28;20208;-71
2023/10/31 08:39:30;;;;;;;2.90;2.57;;;14.10;99.90;;;;;;5034031;28;20164;-73
2023/10/31 08:41:57;;;;;;;3.13;2.60;;;14.00;99.90;;;;;;5034226;28;20167;-72
2023/10/31 08:44:23;;;;;;;2.00;1.90;;;13.80;99.90;;;;;;5030963;28;20446;-71
2023/10/31 08:46:49;;;;;;;2.80;2.33;;;13.80;99.90;;;;;;5027964;28;20423;-71
2023/10/31 08:49:15;;;;;;;3.80;2.80;;;13.90;99.90;;;;;;5033389;28;20449;-71
2023/10/31 08:51:41;;;;;;;2.60;2.10;;;14.10;99.90;;;;;;5033202;28;20183;-71
2023/10/31 08:54:08;;;;;;;3.00;2.20;;;14.30;99.90;;;;;;5033424;28;20414;-71
2023/10/31 08:56:34;;;;;;;2.53;2.30;;;14.40;99.90;;;;;;5033193;28;21124;-71
2023/10/31 08:59:00;;;;;;;4.90;2.03;;;14.40;99.90;;;;;;5033202;28;20446;-71
2023/10/31 09:01:26;;;;;;;2.57;2.37;;;14.50;99.90;;;;;;5033265;28;20631;-71
2023/10/31 09:03:52;;;;;;;1.80;1.70;;;14.60;99.90;;;;;;5033180;28;20175;-71
2023/10/31 09:06:18;;;;;;;2.47;2.27;;;15.10;99.90;;;;;;5031229;28;20427;-71
2023/10/31 09:08:43;;;;;;;1.80;1.70;;;15.50;99.90;;;;;;5028342;28;20222;-71
2023/10/31 09:11:09;;;;;;;1.60;1.50;;;15.60;99.90;;;;;;5025882;28;20179;-72
2023/10/31 09:13:34;;;;;;;2.20;2.00;;;15.90;99.90;;;;;;5029213;28;20184;-71
2023/10/31 09:16:00;;;;;;;2.23;2.00;;;16.00;99.90;;;;;;5032997;28;20172;-71
2023/10/31 09:18:26;;;;;;;1.80;1.70;;;15.90;99.90;;;;;;5033392;28;20728;-71
2023/10/31 09:20:52;;;;;;;1.93;1.73;;;16.00;99.90;;;;;;5031152;28;20172;-71
2023/10/31 09:23:18;;;;;;;4.77;2.13;;;16.10;99.90;;;;;;5032713;28;20424;-71
2023/10/31 09:25:44;;;;;;;2.07;1.87;;;16.40;99.90;;;;;;5032451;28;20225;-72
2023/10/31 09:28:10;;;;;;;1.70;1.60;;;17.10;99.90;;;;;;5032629;28;20541;-72
2023/10/31 09:30:35;;;;;;;4.43;2.00;;;17.50;99.90;;;;;;5032836;28;20845;-72
2023/10/31 09:33:01;;;;;;;1.67;1.57;;;17.60;99.90;;;;;;5028623;28;20554;-72
2023/10/31 09:35:27;;;;;;;1.47;1.30;;;18.20;99.90;;;;;;5032654;28;20187;-72
2023/10/31 09:37:53;;;;;;;1.80;1.67;;;19.40;99.90;;;;;;5032364;28;20219;-71
2023/10/31 09:40:19;;;;;;;2.30;1.80;;;19.70;99.90;;;;;;5033091;28;20168;-71
2023/10/31 09:42:46;;;;;;;14.30;2.23;;;19.30;99.90;;;;;;5032711;28;20521;-72
2023/10/31 09:45:11;;;;;;;2.33;1.50;;;18.90;99.90;;;;;;5032636;28;20639;-72
2023/10/31 09:47:37;;;;;;;2.40;2.00;;;18.60;99.90;;;;;;5032512;28;20508;-72
2023/10/31 09:50:04;;;;;;;1.97;1.77;;;19.20;99.90;;;;;;5032535;28;20171;-72
2023/10/31 09:52:32;;;;;;;1.83;1.27;;;19.70;99.90;;;;;;5032359;28;20649;-71
2023/10/31 09:54:58;;;;;;;1.90;1.30;;;19.80;99.90;;;;;;5029714;28;20468;-72
2023/10/31 09:57:26;;;;;;;2.90;1.70;;;20.50;99.90;;;;;;5032247;28;20462;-73
2023/10/31 09:59:51;;;;;;;4.63;1.30;;;21.30;99.90;;;;;;5032425;28;20403;-73
2023/10/31 10:02:17;;;;;;;1.70;1.20;;;22.40;97.50;;;;;;5032170;28;20417;-73
2023/10/31 10:04:42;;;;;;;1.60;1.50;;;24.20;91.90;;;;;;5028232;28;20196;-73
2023/10/31 10:07:08;;;;;;;1.43;1.33;;;26.00;76.20;;;;;;5029503;28;20578;-72
2023/10/31 10:09:34;;;;;;;2.60;1.73;;;27.20;63.60;;;;;;5032088;28;20172;-71
2023/10/31 10:12:00;;;;;;;5.73;2.10;;;27.70;57.10;;;;;;5031924;28;20245;-72
2023/10/31 10:14:28;;;;;;;2.70;1.90;;;27.90;53.50;;;;;;5032330;28;20262;-71
2023/10/31 10:16:55;;;;;;;2.27;1.77;;;27.90;52.10;;;;;;5032036;28;20462;-71
2023/10/31 10:19:22;;;;;;;2.07;1.87;;;29.20;52.70;;;;;;5032059;28;20402;-72
2023/10/31 10:21:56;;;;;;;2.20;2.10;;;31.40;50.60;;;;;;5042663;28;20428;-71
2023/10/31 10:24:23;;;;;;;2.07;1.97;;;31.60;43.70;;;;;;5036624;28;20433;-72
2023/10/31 10:26:49;;;;;;;2.73;2.13;;;31.80;41.90;;;;;;5032108;28;20417;-72
2023/10/31 10:29:16;;;;;;;1.90;1.80;;;31.00;40.20;;;;;;5030877;28;20963;-71
2023/10/31 10:31:42;;;;;;;2.23;2.13;;;30.50;41.70;;;;;;5030147;28;20473;-72
2023/10/31 10:34:08;;;;;;;1.80;1.70;;;29.00;41.20;;;;;;5028352;28;20422;-71
2023/10/31 10:36:34;;;;;;;1.97;1.87;;;27.80;43.10;;;;;;5038608;28;20167;-71
2023/10/31 10:39:00;;;;;;;2.40;2.20;;;28.00;44.40;;;;;;5051533;28;20433;-72
2023/10/31 10:41:26;;;;;;;2.07;1.97;;;29.00;44.50;;;;;;5051419;28;20174;-71
2023/10/31 10:44:06;;;;;;;3.03;1.90;;;29.30;41.80;;;;;;5043050;28;20174;-71
2023/10/31 10:46:34;;;;;;;3.87;2.10;;;28.90;42.90;;;;;;5033138;28;20433;-71
2023/10/31 10:49:04;;;;;;;1.97;1.87;;;29.40;43.10;;;;;;5051965;28;20777;-71
2023/10/31 10:51:45;;;;;;;2.00;1.83;;;31.20;44.20;;;;;;5050822;28;20405;-72
2023/10/31 10:54:30;;;;;;;2.57;2.33;;;32.70;40.30;;;;;;5050897;28;21065;-71
2023/10/31 10:57:03;;;;;;;3.93;2.03;;;31.90;38.80;;;;;;5051661;28;20463;-71
2023/10/31 10:59:42;;;;;;;3.23;3.03;;;32.00;38.70;;;;;;5050318;28;20751;-72
2023/10/31 11:02:10;;;;;;;2.87;1.60;;;34.00;40.90;;;;;;5042714;28;20759;-71
2023/10/31 11:04:36;;;;;;;1.47;1.37;;;34.00;35.90;;;;;;5031315;28;20410;-71
2023/10/31 11:07:02;;;;;;;1.13;1.03;;;33.00;36.70;;;;;;5031613;28;20853;-71
2023/10/31 11:09:30;;;;;;;1.23;1.07;;;31.10;36.80;;;;;;5031660;28;20406;-71
2023/10/31 11:11:57;;;;;;;1.20;0.90;;;30.00;38.70;;;;;;5031445;28;20417;-70
2023/10/31 11:14:25;;;;;;;1.13;1.00;;;30.50;40.50;;;;;;5031617;28;20413;-72
2023/10/31 11:16:59;;;;;;;1.20;1.10;;;31.00;41.40;;;;;;5031484;28;20570;-71
2023/10/31 11:19:27;;;;;;;2.67;1.50;;;32.50;38.50;;;;;;5031535;28;20430;-72
2023/10/31 11:21:59;;;;;;;1.80;1.40;;;32.80;36.50;;;;;;5031376;28;20418;-71
2023/10/31 11:24:32;;;;;;;4.43;1.10;;;32.80;36.20;;;;;;5031538;28;20395;-71
2023/10/31 11:27:02;;;;;;;2.53;1.60;;;32.20;36.20;;;;;;5031634;28;20421;-71
2023/10/31 11:29:27;;;;;;;1.67;1.37;;;32.40;36.60;;;;;;5031380;28;20935;-71
2023/10/31 11:31:56;;;;;;;2.03;1.30;;;31.60;36.00;;;;;;5031273;28;20411;-71
2023/10/31 11:34:22;;;;;;;2.40;1.53;;;30.80;36.80;;;;;;5031473;28;20199;-71
2023/10/31 11:36:50;;;;;;;1.90;1.70;;;29.60;37.60;;;;;;5031328;28;20422;-71
2023/10/31 11:39:20;;;;;;;2.70;1.20;;;28.20;39.20;;;;;;5031248;28;20413;-70
2023/10/31 11:41:50;;;;;;;3.40;1.40;;;26.90;40.90;;;;;;5031293;28;20893;-70
2023/10/31 11:44:16;;;;;;;1.20;1.10;;;25.40;41.90;;;;;;5032669;28;20887;-70
2023/10/31 11:46:42;;;;;;;1.67;1.13;;;23.80;44.20;;;;;;5033734;28;20723;-70
2023/10/31 11:49:08;;;;;;;1.60;1.40;;;23.00;46.60;;;;;;5034752;28;20454;-70
2023/10/31 11:51:35;;;;;;;1.97;1.27;;;22.50;48.40;;;;;;5034678;28;20175;-70
2023/10/31 11:54:02;;;;;;;1.30;1.20;;;21.60;48.90;;;;;;5034865;28;20160;-70
2023/10/31 11:56:28;;;;;;;1.57;1.17;;;20.70;50.50;;;;;;5034665;28;20448;-70
2023/10/31 11:59:04;;;;;;;4.00;1.40;;;20.10;52.70;;;;;;5034616;28;20453;-70
2023/10/31 12:01:30;;;;;;;1.60;1.20;;;19.70;55.40;;;;;;5034559;28;20428;-69
2023/10/31 12:03:55;;;;;;;2.00;1.30;;;19.40;56.30;;;;;;5034558;28;20481;-70
2023/10/31 12:06:21;;;;;;;2.23;1.30;;;19.30;58.30;;;;;;5035732;28;20164;-70
2023/10/31 12:08:49;;;;;;;1.37;1.10;;;19.40;60.00;;;;;;5053087;28;20195;-70
2023/10/31 12:11:17;;;;;;;2.00;1.83;;;19.10;61.80;;;;;;5053576;28;20552;-70
2023/10/31 12:13:52;;;;;;;1.40;1.20;;;19.40;64.30;;;;;;5054315;28;20770;-70
2023/10/31 12:16:18;;;;;;;7.43;1.50;;;19.40;64.50;;;;;;5054104;28;20407;-70
2023/10/31 12:18:43;;;;;;;2.87;1.87;;;19.50;65.10;;;;;;5054099;28;20831;-70
2023/10/31 12:21:11;;;;;;;2.47;1.37;;;19.60;67.30;;;;;;5054176;28;20934;-70
2023/10/31 12:23:37;;;;;;;1.13;1.03;;;20.00;66.90;;;;;;5035009;28;20179;-70
2023/10/31 12:26:03;;;;;;;2.53;1.40;;;19.90;65.10;;;;;;5034175;28;20406;-71
2023/10/31 12:28:29;;;;;;;1.77;1.30;;;21.40;69.10;;;;;;5034074;28;20647;-71
2023/10/31 12:30:55;;;;;;;3.50;1.50;;;23.50;59.60;;;;;;5034146;28;20493;-71
2023/10/31 12:33:24;;;;;;;8.73;2.00;;;25.50;54.20;;;;;;5034014;28;20198;-71
2023/10/31 12:35:52;;;;;;;1.50;1.23;;;26.30;50.60;;;;;;5034271;28;20406;-71
2023/10/31 12:38:18;;;;;;;1.40;1.30;;;25.20;48.30;;;;;;5040289;28;20466;-70
2023/10/31 12:40:44;;;;;;;2.93;1.50;;;23.70;49.80;;;;;;5028347;28;20509;-71